sensor_id;sensor_type;location;lat;lon;timestamp;P1;durP1;ratioP1;P2;durP2;ratioP2
23561;SDS011;11959;49.418;8.728;2024-03-23T00:53:49;9.27;;;6.85;;
23561;SDS011;11959;49.418;8.728;2024-03-23T00:56:15;8.30;;;6.90;;
23561;SDS011;11959;49.418;8.728;2024-03-23T00:58:40;9.93;;;7.28;;
23561;SDS011;11959;49.418;8.728;2024-03-23T01:01:06;9.98;;;7.78;;
23561;SDS011;11959;49.418;8.728;2024-03-23T01:03:32;11.48;;;7.28;;
23561;SDS011;11959;49.418;8.728;2024-03-23T01:06:01;11.60;;;7.75;;
23561;SDS011;11959;49.418;8.728;2024-03-23T01:08:28;11.10;;;7.78;;
23561;SDS011;11959;49.418;8.728;2024-03-23T01:10:55;10.75;;;7.95;;
23561;SDS011;11959;49.418;8.728;2024-03-23T01:13:21;8.88;;;7.05;;
23561;SDS011;11959;49.418;8.728;2024-03-23T01:15:50;9.25;;;7.03;;
23561;SDS011;11959;49.418;8.728;2024-03-23T01:18:17;10.20;;;7.00;;
23561;SDS011;11959;49.418;8.728;2024-03-23T01:20:43;9.40;;;6.95;;
23561;SDS011;11959;49.418;8.728;2024-03-23T01:23:09;7.93;;;6.43;;
23561;SDS011;11959;49.418;8.728;2024-03-23T01:25:34;9.52;;;6.78;;
23561;SDS011;11959;49.418;8.728;2024-03-23T01:28:00;8.85;;;6.85;;
23561;SDS011;11959;49.418;8.728;2024-03-23T01:30:25;10.57;;;7.07;;
23561;SDS011;11959;49.418;8.728;2024-03-23T01:32:51;11.50;;;8.07;;
23561;SDS011;11959;49.418;8.728;2024-03-23T01:35:16;8.98;;;7.18;;
23561;SDS011;11959;49.418;8.728;2024-03-23T01:37:42;8.13;;;6.80;;
23561;SDS011;11959;49.418;8.728;2024-03-23T01:40:08;8.23;;;7.28;;
23561;SDS011;11959;49.418;8.728;2024-03-23T01:42:34;10.65;;;7.22;;
23561;SDS011;11959;49.418;8.728;2024-03-23T01:44:59;10.77;;;6.80;;
23561;SDS011;11959;49.418;8.728;2024-03-23T01:47:25;9.13;;;7.57;;
23561;SDS011;11959;49.418;8.728;2024-03-23T01:49:51;10.35;;;7.18;;
23561;SDS011;11959;49.418;8.728;2024-03-23T01:52:17;9.43;;;7.20;;
23561;SDS011;11959;49.418;8.728;2024-03-23T01:54:43;8.88;;;7.35;;
23561;SDS011;11959;49.418;8.728;2024-03-23T01:57:09;13.25;;;7.75;;
23561;SDS011;11959;49.418;8.728;2024-03-23T01:59:35;10.63;;;7.40;;
23561;SDS011;11959;49.418;8.728;2024-03-23T02:02:01;10.52;;;7.30;;
23561;SDS011;11959;49.418;8.728;2024-03-23T02:04:26;9.10;;;7.00;;
23561;SDS011;11959;49.418;8.728;2024-03-23T02:06:52;9.07;;;7.05;;
23561;SDS011;11959;49.418;8.728;2024-03-23T02:09:18;11.07;;;7.20;;
23561;SDS011;11959;49.418;8.728;2024-03-23T02:11:43;10.10;;;7.35;;
23561;SDS011;11959;49.418;8.728;2024-03-23T02:14:09;9.85;;;6.93;;
23561;SDS011;11959;49.418;8.728;2024-03-23T02:16:35;8.65;;;7.32;;
23561;SDS011;11959;49.418;8.728;2024-03-23T02:19:00;9.32;;;7.00;;
23561;SDS011;11959;49.418;8.728;2024-03-23T02:21:26;11.38;;;7.32;;
23561;SDS011;11959;49.418;8.728;2024-03-23T02:23:52;9.63;;;7.53;;
23561;SDS011;11959;49.418;8.728;2024-03-23T02:26:18;10.63;;;7.35;;
23561;SDS011;11959;49.418;8.728;2024-03-23T02:28:44;9.30;;;7.13;;
23561;SDS011;11959;49.418;8.728;2024-03-23T02:31:09;8.50;;;6.40;;
23561;SDS011;11959;49.418;8.728;2024-03-23T02:33:35;10.80;;;6.90;;
23561;SDS011;11959;49.418;8.728;2024-03-23T02:36:03;9.52;;;7.07;;
23561;SDS011;11959;49.418;8.728;2024-03-23T02:38:29;12.20;;;7.35;;
23561;SDS011;11959;49.418;8.728;2024-03-23T02:40:54;9.23;;;6.75;;
23561;SDS011;11959;49.418;8.728;2024-03-23T02:43:25;10.93;;;7.20;;
23561;SDS011;11959;49.418;8.728;2024-03-23T02:45:51;9.35;;;6.70;;
23561;SDS011;11959;49.418;8.728;2024-03-23T02:48:17;8.63;;;6.45;;
23561;SDS011;11959;49.418;8.728;2024-03-23T02:50:42;9.00;;;6.68;;
23561;SDS011;11959;49.418;8.728;2024-03-23T02:53:11;10.05;;;6.90;;
23561;SDS011;11959;49.418;8.728;2024-03-23T02:55:37;11.48;;;7.30;;
23561;SDS011;11959;49.418;8.728;2024-03-23T02:58:02;11.10;;;6.68;;
23561;SDS011;11959;49.418;8.728;2024-03-23T03:00:28;9.27;;;6.75;;
23561;SDS011;11959;49.418;8.728;2024-03-23T03:02:54;8.80;;;7.05;;
23561;SDS011;11959;49.418;8.728;2024-03-23T03:05:20;10.40;;;6.90;;
23561;SDS011;11959;49.418;8.728;2024-03-23T03:07:46;8.57;;;6.78;;
23561;SDS011;11959;49.418;8.728;2024-03-23T03:10:11;8.15;;;6.22;;
23561;SDS011;11959;49.418;8.728;2024-03-23T03:12:37;11.80;;;7.03;;
23561;SDS011;11959;49.418;8.728;2024-03-23T03:15:06;9.93;;;7.30;;
23561;SDS011;11959;49.418;8.728;2024-03-23T03:17:33;13.75;;;7.85;;
23561;SDS011;11959;49.418;8.728;2024-03-23T03:19:58;9.90;;;6.90;;
23561;SDS011;11959;49.418;8.728;2024-03-23T03:22:24;9.77;;;7.35;;
23561;SDS011;11959;49.418;8.728;2024-03-23T03:24:50;11.52;;;6.97;;
23561;SDS011;11959;49.418;8.728;2024-03-23T03:27:16;7.55;;;6.13;;
23561;SDS011;11959;49.418;8.728;2024-03-23T03:29:41;11.50;;;7.32;;
23561;SDS011;11959;49.418;8.728;2024-03-23T03:32:07;9.23;;;7.05;;
23561;SDS011;11959;49.418;8.728;2024-03-23T03:34:33;10.30;;;7.00;;
23561;SDS011;11959;49.418;8.728;2024-03-23T03:37:00;9.13;;;6.78;;
23561;SDS011;11959;49.418;8.728;2024-03-23T03:39:25;11.43;;;7.32;;
23561;SDS011;11959;49.418;8.728;2024-03-23T03:41:51;7.63;;;6.50;;
23561;SDS011;11959;49.418;8.728;2024-03-23T03:44:17;9.70;;;6.55;;
23561;SDS011;11959;49.418;8.728;2024-03-23T03:46:43;9.38;;;7.60;;
23561;SDS011;11959;49.418;8.728;2024-03-23T03:49:09;10.20;;;7.13;;
23561;SDS011;11959;49.418;8.728;2024-03-23T03:51:34;9.13;;;7.13;;
23561;SDS011;11959;49.418;8.728;2024-03-23T03:54:00;11.77;;;7.80;;
23561;SDS011;11959;49.418;8.728;2024-03-23T03:56:26;10.05;;;7.45;;
23561;SDS011;11959;49.418;8.728;2024-03-23T03:58:52;10.38;;;7.78;;
23561;SDS011;11959;49.418;8.728;2024-03-23T04:01:18;9.48;;;7.30;;
23561;SDS011;11959;49.418;8.728;2024-03-23T04:03:43;11.70;;;8.05;;
23561;SDS011;11959;49.418;8.728;2024-03-23T04:06:09;9.23;;;6.95;;
23561;SDS011;11959;49.418;8.728;2024-03-23T04:08:35;9.10;;;7.43;;
23561;SDS011;11959;49.418;8.728;2024-03-23T04:11:01;9.77;;;7.70;;
23561;SDS011;11959;49.418;8.728;2024-03-23T04:13:27;11.18;;;8.27;;
23561;SDS011;11959;49.418;8.728;2024-03-23T04:15:55;11.52;;;8.23;;
23561;SDS011;11959;49.418;8.728;2024-03-23T04:18:21;15.60;;;9.40;;
23561;SDS011;11959;49.418;8.728;2024-03-23T04:20:51;13.32;;;9.13;;
23561;SDS011;11959;49.418;8.728;2024-03-23T04:23:16;13.02;;;8.98;;
23561;SDS011;11959;49.418;8.728;2024-03-23T04:25:42;13.98;;;9.45;;
23561;SDS011;11959;49.418;8.728;2024-03-23T04:28:08;16.88;;;9.70;;
23561;SDS011;11959;49.418;8.728;2024-03-23T04:30:34;14.23;;;9.13;;
23561;SDS011;11959;49.418;8.728;2024-03-23T04:33:00;15.75;;;9.27;;
23561;SDS011;11959;49.418;8.728;2024-03-23T04:35:26;13.35;;;9.82;;
23561;SDS011;11959;49.418;8.728;2024-03-23T04:37:52;14.32;;;9.55;;
23561;SDS011;11959;49.418;8.728;2024-03-23T04:40:18;15.05;;;9.73;;
23561;SDS011;11959;49.418;8.728;2024-03-23T04:42:44;14.27;;;10.07;;
23561;SDS011;11959;49.418;8.728;2024-03-23T04:45:09;15.25;;;10.48;;
23561;SDS011;11959;49.418;8.728;2024-03-23T04:47:36;16.10;;;10.75;;
23561;SDS011;11959;49.418;8.728;2024-03-23T04:50:03;15.20;;;10.23;;
23561;SDS011;11959;49.418;8.728;2024-03-23T04:52:29;18.17;;;11.20;;
23561;SDS011;11959;49.418;8.728;2024-03-23T04:54:55;16.63;;;10.63;;
23561;SDS011;11959;49.418;8.728;2024-03-23T04:57:20;15.50;;;10.43;;
23561;SDS011;11959;49.418;8.728;2024-03-23T04:59:46;18.15;;;11.73;;
23561;SDS011;11959;49.418;8.728;2024-03-23T05:02:14;19.23;;;11.48;;
23561;SDS011;11959;49.418;8.728;2024-03-23T05:04:40;17.70;;;11.30;;
23561;SDS011;11959;49.418;8.728;2024-03-23T05:07:06;18.17;;;11.32;;
23561;SDS011;11959;49.418;8.728;2024-03-23T05:09:32;17.45;;;10.85;;
23561;SDS011;11959;49.418;8.728;2024-03-23T05:11:58;20.02;;;12.27;;
23561;SDS011;11959;49.418;8.728;2024-03-23T05:14:27;20.90;;;12.27;;
23561;SDS011;11959;49.418;8.728;2024-03-23T05:16:53;21.50;;;11.98;;
23561;SDS011;11959;49.418;8.728;2024-03-23T05:19:19;17.35;;;11.00;;
23561;SDS011;11959;49.418;8.728;2024-03-23T05:21:45;16.80;;;9.88;;
23561;SDS011;11959;49.418;8.728;2024-03-23T05:24:11;12.82;;;8.18;;
23561;SDS011;11959;49.418;8.728;2024-03-23T05:26:37;15.35;;;8.73;;
23561;SDS011;11959;49.418;8.728;2024-03-23T05:29:03;8.93;;;5.68;;
23561;SDS011;11959;49.418;8.728;2024-03-23T05:31:29;7.80;;;4.72;;
23561;SDS011;11959;49.418;8.728;2024-03-23T05:33:56;4.53;;;2.80;;
23561;SDS011;11959;49.418;8.728;2024-03-23T05:36:22;5.38;;;2.95;;
23561;SDS011;11959;49.418;8.728;2024-03-23T05:38:49;5.90;;;2.90;;
23561;SDS011;11959;49.418;8.728;2024-03-23T05:41:15;6.53;;;3.10;;
23561;SDS011;11959;49.418;8.728;2024-03-23T05:43:40;6.55;;;3.50;;
23561;SDS011;11959;49.418;8.728;2024-03-23T05:46:06;6.90;;;3.50;;
23561;SDS011;11959;49.418;8.728;2024-03-23T05:48:32;6.90;;;3.97;;
23561;SDS011;11959;49.418;8.728;2024-03-23T05:50:58;4.97;;;3.75;;
23561;SDS011;11959;49.418;8.728;2024-03-23T05:53:24;6.68;;;3.90;;
23561;SDS011;11959;49.418;8.728;2024-03-23T05:55:50;5.65;;;3.50;;
23561;SDS011;11959;49.418;8.728;2024-03-23T05:58:19;4.75;;;3.30;;
23561;SDS011;11959;49.418;8.728;2024-03-23T06:00:47;5.22;;;3.97;;
23561;SDS011;11959;49.418;8.728;2024-03-23T06:03:13;6.70;;;4.30;;
23561;SDS011;11959;49.418;8.728;2024-03-23T06:05:38;5.30;;;4.20;;
23561;SDS011;11959;49.418;8.728;2024-03-23T06:08:04;5.20;;;3.83;;
23561;SDS011;11959;49.418;8.728;2024-03-23T06:10:31;5.65;;;3.72;;
23561;SDS011;11959;49.418;8.728;2024-03-23T06:12:57;5.20;;;3.85;;
23561;SDS011;11959;49.418;8.728;2024-03-23T06:15:24;5.53;;;3.80;;
23561;SDS011;11959;49.418;8.728;2024-03-23T06:17:52;4.53;;;3.30;;
23561;SDS011;11959;49.418;8.728;2024-03-23T06:20:17;3.42;;;2.70;;
23561;SDS011;11959;49.418;8.728;2024-03-23T06:22:43;4.68;;;3.15;;
23561;SDS011;11959;49.418;8.728;2024-03-23T06:25:09;4.53;;;2.88;;
23561;SDS011;11959;49.418;8.728;2024-03-23T06:27:34;4.30;;;2.60;;
23561;SDS011;11959;49.418;8.728;2024-03-23T06:30:00;4.70;;;2.63;;
23561;SDS011;11959;49.418;8.728;2024-03-23T06:32:27;4.20;;;2.70;;
23561;SDS011;11959;49.418;8.728;2024-03-23T06:34:54;4.18;;;2.80;;
23561;SDS011;11959;49.418;8.728;2024-03-23T06:37:20;3.70;;;2.38;;
23561;SDS011;11959;49.418;8.728;2024-03-23T06:39:45;4.03;;;2.47;;
23561;SDS011;11959;49.418;8.728;2024-03-23T06:42:11;3.40;;;2.50;;
23561;SDS011;11959;49.418;8.728;2024-03-23T06:44:37;4.43;;;2.75;;
23561;SDS011;11959;49.418;8.728;2024-03-23T06:47:03;3.17;;;2.47;;
23561;SDS011;11959;49.418;8.728;2024-03-23T06:49:28;3.60;;;2.25;;
23561;SDS011;11959;49.418;8.728;2024-03-23T06:51:54;4.60;;;2.65;;
23561;SDS011;11959;49.418;8.728;2024-03-23T06:54:20;3.90;;;1.90;;
23561;SDS011;11959;49.418;8.728;2024-03-23T06:56:46;2.22;;;1.50;;
23561;SDS011;11959;49.418;8.728;2024-03-23T06:59:11;2.13;;;1.17;;
23561;SDS011;11959;49.418;8.728;2024-03-23T07:01:37;1.70;;;0.90;;
23561;SDS011;11959;49.418;8.728;2024-03-23T07:04:03;1.70;;;0.90;;
23561;SDS011;11959;49.418;8.728;2024-03-23T07:06:29;1.98;;;0.90;;
23561;SDS011;11959;49.418;8.728;2024-03-23T07:08:55;1.50;;;0.88;;
23561;SDS011;11959;49.418;8.728;2024-03-23T07:11:21;1.30;;;0.90;;
23561;SDS011;11959;49.418;8.728;2024-03-23T07:13:51;2.60;;;0.80;;
23561;SDS011;11959;49.418;8.728;2024-03-23T07:16:17;1.45;;;0.80;;
23561;SDS011;11959;49.418;8.728;2024-03-23T07:18:43;1.40;;;0.73;;
23561;SDS011;11959;49.418;8.728;2024-03-23T07:21:09;1.08;;;0.52;;
23561;SDS011;11959;49.418;8.728;2024-03-23T07:23:35;0.93;;;0.55;;
23561;SDS011;11959;49.418;8.728;2024-03-23T07:26:02;1.23;;;0.73;;
23561;SDS011;11959;49.418;8.728;2024-03-23T07:28:29;1.05;;;0.68;;
23561;SDS011;11959;49.418;8.728;2024-03-23T07:31:12;0.93;;;0.60;;
23561;SDS011;11959;49.418;8.728;2024-03-23T07:33:48;2.60;;;0.73;;
23561;SDS011;11959;49.418;8.728;2024-03-23T07:36:14;1.23;;;0.70;;
23561;SDS011;11959;49.418;8.728;2024-03-23T07:38:40;2.97;;;0.82;;
23561;SDS011;11959;49.418;8.728;2024-03-23T07:41:10;2.22;;;0.82;;
23561;SDS011;11959;49.418;8.728;2024-03-23T07:43:37;1.95;;;0.90;;
23561;SDS011;11959;49.418;8.728;2024-03-23T07:46:03;1.40;;;0.90;;
23561;SDS011;11959;49.418;8.728;2024-03-23T07:48:30;2.58;;;0.82;;
23561;SDS011;11959;49.418;8.728;2024-03-23T07:51:00;2.65;;;1.10;;
23561;SDS011;11959;49.418;8.728;2024-03-23T07:53:26;3.80;;;1.17;;
23561;SDS011;11959;49.418;8.728;2024-03-23T07:55:56;2.25;;;0.90;;
23561;SDS011;11959;49.418;8.728;2024-03-23T07:58:23;3.78;;;1.17;;
23561;SDS011;11959;49.418;8.728;2024-03-23T08:00:48;2.55;;;0.90;;
23561;SDS011;11959;49.418;8.728;2024-03-23T08:03:14;1.70;;;1.00;;
23561;SDS011;11959;49.418;8.728;2024-03-23T08:05:40;2.42;;;1.17;;
23561;SDS011;11959;49.418;8.728;2024-03-23T08:08:06;4.30;;;1.70;;
23561;SDS011;11959;49.418;8.728;2024-03-23T08:10:32;5.57;;;1.35;;
23561;SDS011;11959;49.418;8.728;2024-03-23T08:12:58;3.13;;;1.60;;
23561;SDS011;11959;49.418;8.728;2024-03-23T08:15:23;2.33;;;1.40;;
23561;SDS011;11959;49.418;8.728;2024-03-23T08:17:49;3.70;;;1.42;;
23561;SDS011;11959;49.418;8.728;2024-03-23T08:20:15;5.47;;;1.67;;
23561;SDS011;11959;49.418;8.728;2024-03-23T08:22:41;2.58;;;1.33;;
23561;SDS011;11959;49.418;8.728;2024-03-23T08:25:06;3.10;;;1.48;;
23561;SDS011;11959;49.418;8.728;2024-03-23T08:27:32;3.28;;;1.70;;
23561;SDS011;11959;49.418;8.728;2024-03-23T08:29:58;5.45;;;2.10;;
23561;SDS011;11959;49.418;8.728;2024-03-23T08:32:23;3.28;;;1.80;;
23561;SDS011;11959;49.418;8.728;2024-03-23T08:34:49;5.32;;;1.92;;
23561;SDS011;11959;49.418;8.728;2024-03-23T08:37:15;4.30;;;1.83;;
23561;SDS011;11959;49.418;8.728;2024-03-23T08:39:42;4.68;;;1.90;;
23561;SDS011;11959;49.418;8.728;2024-03-23T08:42:08;4.28;;;1.98;;
23561;SDS011;11959;49.418;8.728;2024-03-23T08:44:34;4.75;;;1.98;;
23561;SDS011;11959;49.418;8.728;2024-03-23T08:47:00;4.55;;;1.80;;
23561;SDS011;11959;49.418;8.728;2024-03-23T08:49:26;4.05;;;2.20;;
23561;SDS011;11959;49.418;8.728;2024-03-23T08:51:52;5.65;;;2.00;;
23561;SDS011;11959;49.418;8.728;2024-03-23T08:54:19;8.45;;;2.30;;
23561;SDS011;11959;49.418;8.728;2024-03-23T08:56:45;5.38;;;2.08;;
23561;SDS011;11959;49.418;8.728;2024-03-23T08:59:11;6.25;;;2.50;;
23561;SDS011;11959;49.418;8.728;2024-03-23T09:01:37;5.82;;;2.58;;
23561;SDS011;11959;49.418;8.728;2024-03-23T09:04:03;6.07;;;2.20;;
23561;SDS011;11959;49.418;8.728;2024-03-23T09:06:29;6.50;;;3.10;;
23561;SDS011;11959;49.418;8.728;2024-03-23T09:08:55;5.25;;;2.33;;
23561;SDS011;11959;49.418;8.728;2024-03-23T09:11:20;6.32;;;2.47;;
23561;SDS011;11959;49.418;8.728;2024-03-23T09:13:46;6.95;;;2.85;;
23561;SDS011;11959;49.418;8.728;2024-03-23T09:16:11;6.55;;;2.80;;
23561;SDS011;11959;49.418;8.728;2024-03-23T09:18:37;9.38;;;3.28;;
23561;SDS011;11959;49.418;8.728;2024-03-23T09:21:03;5.57;;;2.50;;
23561;SDS011;11959;49.418;8.728;2024-03-23T09:23:35;8.67;;;2.87;;
23561;SDS011;11959;49.418;8.728;2024-03-23T09:26:04;5.22;;;2.33;;
23561;SDS011;11959;49.418;8.728;2024-03-23T09:28:32;5.85;;;2.47;;
23561;SDS011;11959;49.418;8.728;2024-03-23T09:31:04;7.15;;;2.72;;
23561;SDS011;11959;49.418;8.728;2024-03-23T09:33:32;7.15;;;3.30;;
23561;SDS011;11959;49.418;8.728;2024-03-23T09:35:58;6.07;;;3.15;;
23561;SDS011;11959;49.418;8.728;2024-03-23T09:38:28;6.15;;;2.58;;
23561;SDS011;11959;49.418;8.728;2024-03-23T09:40:54;9.25;;;2.78;;
23561;SDS011;11959;49.418;8.728;2024-03-23T09:43:19;8.48;;;3.28;;
23561;SDS011;11959;49.418;8.728;2024-03-23T09:45:45;6.18;;;2.58;;
23561;SDS011;11959;49.418;8.728;2024-03-23T09:48:12;6.72;;;3.20;;
23561;SDS011;11959;49.418;8.728;2024-03-23T09:50:41;8.50;;;3.20;;
23561;SDS011;11959;49.418;8.728;2024-03-23T09:53:09;7.93;;;2.87;;
23561;SDS011;11959;49.418;8.728;2024-03-23T09:55:39;6.80;;;3.13;;
23561;SDS011;11959;49.418;8.728;2024-03-23T09:58:06;5.05;;;2.88;;
23561;SDS011;11959;49.418;8.728;2024-03-23T10:00:35;8.75;;;3.03;;
23561;SDS011;11959;49.418;8.728;2024-03-23T10:03:01;6.03;;;2.70;;
23561;SDS011;11959;49.418;8.728;2024-03-23T10:05:27;9.75;;;3.63;;
23561;SDS011;11959;49.418;8.728;2024-03-23T10:07:54;12.85;;;3.72;;
23561;SDS011;11959;49.418;8.728;2024-03-23T10:10:20;7.80;;;3.65;;
23561;SDS011;11959;49.418;8.728;2024-03-23T10:12:48;8.25;;;3.38;;
23561;SDS011;11959;49.418;8.728;2024-03-23T10:15:18;7.97;;;3.28;;
23561;SDS011;11959;49.418;8.728;2024-03-23T10:17:45;7.20;;;2.90;;
23561;SDS011;11959;49.418;8.728;2024-03-23T10:20:12;7.57;;;2.95;;
23561;SDS011;11959;49.418;8.728;2024-03-23T10:22:38;5.68;;;2.70;;
23561;SDS011;11959;49.418;8.728;2024-03-23T10:25:08;8.48;;;2.92;;
23561;SDS011;11959;49.418;8.728;2024-03-23T10:27:34;7.82;;;2.90;;
23561;SDS011;11959;49.418;8.728;2024-03-23T10:30:09;9.20;;;3.40;;
23561;SDS011;11959;49.418;8.728;2024-03-23T10:32:42;7.00;;;2.42;;
23561;SDS011;11959;49.418;8.728;2024-03-23T10:35:18;6.32;;;2.60;;
23561;SDS011;11959;49.418;8.728;2024-03-23T10:37:47;7.45;;;2.60;;
23561;SDS011;11959;49.418;8.728;2024-03-23T10:40:14;8.93;;;2.85;;
23561;SDS011;11959;49.418;8.728;2024-03-23T10:42:41;6.93;;;2.38;;
23561;SDS011;11959;49.418;8.728;2024-03-23T10:45:07;6.38;;;2.42;;
23561;SDS011;11959;49.418;8.728;2024-03-23T10:47:37;8.05;;;2.28;;
23561;SDS011;11959;49.418;8.728;2024-03-23T10:50:06;6.30;;;2.35;;
23561;SDS011;11959;49.418;8.728;2024-03-23T10:52:35;7.22;;;2.38;;
23561;SDS011;11959;49.418;8.728;2024-03-23T10:55:02;7.93;;;2.20;;
23561;SDS011;11959;49.418;8.728;2024-03-23T10:57:37;6.47;;;2.38;;
23561;SDS011;11959;49.418;8.728;2024-03-23T11:00:08;8.20;;;2.47;;
23561;SDS011;11959;49.418;8.728;2024-03-23T11:02:35;5.07;;;2.05;;
23561;SDS011;11959;49.418;8.728;2024-03-23T11:05:01;4.75;;;1.92;;
23561;SDS011;11959;49.418;8.728;2024-03-23T11:09:59;7.18;;;2.17;;
23561;SDS011;11959;49.418;8.728;2024-03-23T11:12:26;8.35;;;2.38;;
23561;SDS011;11959;49.418;8.728;2024-03-23T11:17:22;8.25;;;2.50;;
23561;SDS011;11959;49.418;8.728;2024-03-23T11:19:56;6.80;;;1.80;;
23561;SDS011;11959;49.418;8.728;2024-03-23T11:25:19;9.48;;;2.10;;
23561;SDS011;11959;49.418;8.728;2024-03-23T11:27:46;5.25;;;1.33;;
23561;SDS011;11959;49.418;8.728;2024-03-23T11:30:15;5.53;;;1.20;;
23561;SDS011;11959;49.418;8.728;2024-03-23T11:32:43;9.00;;;2.03;;
23561;SDS011;11959;49.418;8.728;2024-03-23T11:35:28;8.70;;;1.75;;
23561;SDS011;11959;49.418;8.728;2024-03-23T11:40:36;4.38;;;1.60;;
23561;SDS011;11959;49.418;8.728;2024-03-23T11:43:06;6.85;;;2.17;;
23561;SDS011;11959;49.418;8.728;2024-03-23T11:45:34;5.45;;;1.90;;
23561;SDS011;11959;49.418;8.728;2024-03-23T11:48:04;3.67;;;1.40;;
23561;SDS011;11959;49.418;8.728;2024-03-23T11:50:35;4.28;;;1.50;;
23561;SDS011;11959;49.418;8.728;2024-03-23T11:53:26;7.50;;;1.88;;
23561;SDS011;11959;49.418;8.728;2024-03-23T11:58:26;4.97;;;1.75;;
23561;SDS011;11959;49.418;8.728;2024-03-23T12:00:59;4.90;;;1.70;;
23561;SDS011;11959;49.418;8.728;2024-03-23T12:03:28;4.82;;;1.70;;
23561;SDS011;11959;49.418;8.728;2024-03-23T12:05:55;5.82;;;2.03;;
23561;SDS011;11959;49.418;8.728;2024-03-23T12:08:24;7.05;;;2.00;;
23561;SDS011;11959;49.418;8.728;2024-03-23T12:11:04;5.97;;;1.80;;
23561;SDS011;11959;49.418;8.728;2024-03-23T12:13:36;4.55;;;1.92;;
23561;SDS011;11959;49.418;8.728;2024-03-23T12:16:11;7.60;;;1.88;;
23561;SDS011;11959;49.418;8.728;2024-03-23T12:18:49;4.25;;;2.13;;
23561;SDS011;11959;49.418;8.728;2024-03-23T12:21:18;4.82;;;2.65;;
23561;SDS011;11959;49.418;8.728;2024-03-23T12:23:44;4.72;;;2.60;;
23561;SDS011;11959;49.418;8.728;2024-03-23T12:26:11;6.07;;;2.60;;
23561;SDS011;11959;49.418;8.728;2024-03-23T12:28:37;6.25;;;2.63;;
23561;SDS011;11959;49.418;8.728;2024-03-23T12:31:03;7.75;;;2.28;;
23561;SDS011;11959;49.418;8.728;2024-03-23T12:33:30;8.00;;;2.67;;
23561;SDS011;11959;49.418;8.728;2024-03-23T12:35:56;5.72;;;2.65;;
23561;SDS011;11959;49.418;8.728;2024-03-23T12:38:22;6.28;;;2.67;;
23561;SDS011;11959;49.418;8.728;2024-03-23T12:40:48;6.45;;;1.90;;
23561;SDS011;11959;49.418;8.728;2024-03-23T12:43:14;6.70;;;2.40;;
23561;SDS011;11959;49.418;8.728;2024-03-23T12:45:40;6.78;;;2.50;;
23561;SDS011;11959;49.418;8.728;2024-03-23T12:48:06;6.53;;;2.83;;
23561;SDS011;11959;49.418;8.728;2024-03-23T12:50:32;7.05;;;3.20;;
23561;SDS011;11959;49.418;8.728;2024-03-23T12:52:58;5.50;;;2.63;;
23561;SDS011;11959;49.418;8.728;2024-03-23T12:55:23;6.32;;;2.85;;
23561;SDS011;11959;49.418;8.728;2024-03-23T12:57:49;7.82;;;2.80;;
23561;SDS011;11959;49.418;8.728;2024-03-23T13:00:15;4.40;;;2.28;;
23561;SDS011;11959;49.418;8.728;2024-03-23T13:02:42;7.13;;;2.95;;
23561;SDS011;11959;49.418;8.728;2024-03-23T13:05:07;6.72;;;2.70;;
23561;SDS011;11959;49.418;8.728;2024-03-23T13:07:34;6.15;;;2.65;;
23561;SDS011;11959;49.418;8.728;2024-03-23T13:10:00;4.88;;;2.90;;
23561;SDS011;11959;49.418;8.728;2024-03-23T13:12:27;5.70;;;2.97;;
23561;SDS011;11959;49.418;8.728;2024-03-23T13:14:52;8.60;;;3.40;;
23561;SDS011;11959;49.418;8.728;2024-03-23T13:17:18;5.35;;;3.22;;
23561;SDS011;11959;49.418;8.728;2024-03-23T13:19:44;2.97;;;1.40;;
23561;SDS011;11959;49.418;8.728;2024-03-23T13:22:09;3.05;;;0.98;;
23561;SDS011;11959;49.418;8.728;2024-03-23T13:24:37;2.20;;;0.80;;
23561;SDS011;11959;49.418;8.728;2024-03-23T13:27:03;3.03;;;1.02;;
23561;SDS011;11959;49.418;8.728;2024-03-23T13:29:33;2.13;;;0.90;;
23561;SDS011;11959;49.418;8.728;2024-03-23T13:32:00;2.28;;;0.82;;
23561;SDS011;11959;49.418;8.728;2024-03-23T13:34:25;2.55;;;0.75;;
23561;SDS011;11959;49.418;8.728;2024-03-23T13:36:51;2.35;;;0.77;;
23561;SDS011;11959;49.418;8.728;2024-03-23T13:39:17;1.80;;;0.60;;
23561;SDS011;11959;49.418;8.728;2024-03-23T13:41:43;0.98;;;0.55;;
23561;SDS011;11959;49.418;8.728;2024-03-23T13:44:10;1.65;;;0.60;;
23561;SDS011;11959;49.418;8.728;2024-03-23T13:46:37;1.25;;;0.55;;
23561;SDS011;11959;49.418;8.728;2024-03-23T13:49:03;3.63;;;0.90;;
23561;SDS011;11959;49.418;8.728;2024-03-23T13:51:29;1.20;;;0.70;;
23561;SDS011;11959;49.418;8.728;2024-03-23T13:53:55;2.22;;;1.13;;
23561;SDS011;11959;49.418;8.728;2024-03-23T13:56:22;1.67;;;0.60;;
23561;SDS011;11959;49.418;8.728;2024-03-23T13:58:48;2.35;;;1.00;;
23561;SDS011;11959;49.418;8.728;2024-03-23T14:01:14;2.85;;;0.60;;
23561;SDS011;11959;49.418;8.728;2024-03-23T14:03:41;2.85;;;1.05;;
23561;SDS011;11959;49.418;8.728;2024-03-23T14:06:07;1.15;;;0.80;;
23561;SDS011;11959;49.418;8.728;2024-03-23T14:08:34;3.58;;;1.67;;
23561;SDS011;11959;49.418;8.728;2024-03-23T14:11:01;1.85;;;0.70;;
23561;SDS011;11959;49.418;8.728;2024-03-23T14:13:28;1.70;;;0.70;;
23561;SDS011;11959;49.418;8.728;2024-03-23T14:15:54;1.70;;;0.80;;
23561;SDS011;11959;49.418;8.728;2024-03-23T14:18:20;1.23;;;0.70;;
23561;SDS011;11959;49.418;8.728;2024-03-23T14:20:47;3.25;;;1.10;;
23561;SDS011;11959;49.418;8.728;2024-03-23T14:23:13;1.90;;;0.93;;
23561;SDS011;11959;49.418;8.728;2024-03-23T14:25:39;2.05;;;1.13;;
23561;SDS011;11959;49.418;8.728;2024-03-23T14:28:05;2.25;;;0.90;;
23561;SDS011;11959;49.418;8.728;2024-03-23T14:30:30;3.15;;;0.93;;
23561;SDS011;11959;49.418;8.728;2024-03-23T14:32:56;4.45;;;0.98;;
23561;SDS011;11959;49.418;8.728;2024-03-23T14:35:22;2.35;;;0.70;;
23561;SDS011;11959;49.418;8.728;2024-03-23T14:37:48;4.53;;;0.90;;
23561;SDS011;11959;49.418;8.728;2024-03-23T14:40:14;2.63;;;0.73;;
23561;SDS011;11959;49.418;8.728;2024-03-23T14:42:40;3.00;;;0.80;;
23561;SDS011;11959;49.418;8.728;2024-03-23T14:45:06;4.78;;;0.80;;
23561;SDS011;11959;49.418;8.728;2024-03-23T14:47:32;1.33;;;0.50;;
23561;SDS011;11959;49.418;8.728;2024-03-23T14:49:58;3.92;;;1.00;;
23561;SDS011;11959;49.418;8.728;2024-03-23T14:52:23;3.03;;;0.90;;
23561;SDS011;11959;49.418;8.728;2024-03-23T14:54:49;1.15;;;0.75;;
23561;SDS011;11959;49.418;8.728;2024-03-23T14:57:15;2.35;;;0.73;;
23561;SDS011;11959;49.418;8.728;2024-03-23T14:59:41;3.25;;;0.70;;
23561;SDS011;11959;49.418;8.728;2024-03-23T15:02:07;3.80;;;0.85;;
23561;SDS011;11959;49.418;8.728;2024-03-23T15:04:33;3.85;;;0.80;;
23561;SDS011;11959;49.418;8.728;2024-03-23T15:06:59;2.63;;;0.60;;
23561;SDS011;11959;49.418;8.728;2024-03-23T15:09:25;3.58;;;0.68;;
23561;SDS011;11959;49.418;8.728;2024-03-23T15:11:50;1.33;;;0.60;;
23561;SDS011;11959;49.418;8.728;2024-03-23T15:14:16;1.30;;;0.50;;
23561;SDS011;11959;49.418;8.728;2024-03-23T15:16:42;3.42;;;0.80;;
23561;SDS011;11959;49.418;8.728;2024-03-23T15:19:08;2.65;;;0.88;;
23561;SDS011;11959;49.418;8.728;2024-03-23T15:21:34;1.42;;;0.55;;
23561;SDS011;11959;49.418;8.728;2024-03-23T15:23:59;1.40;;;0.65;;
23561;SDS011;11959;49.418;8.728;2024-03-23T15:26:25;1.42;;;0.60;;
23561;SDS011;11959;49.418;8.728;2024-03-23T15:28:52;2.58;;;0.77;;
23561;SDS011;11959;49.418;8.728;2024-03-23T15:31:23;3.47;;;0.80;;
23561;SDS011;11959;49.418;8.728;2024-03-23T15:33:50;1.35;;;0.60;;
23561;SDS011;11959;49.418;8.728;2024-03-23T15:36:15;3.42;;;0.80;;
23561;SDS011;11959;49.418;8.728;2024-03-23T15:38:42;2.60;;;0.73;;
23561;SDS011;11959;49.418;8.728;2024-03-23T15:41:08;3.38;;;0.93;;
23561;SDS011;11959;49.418;8.728;2024-03-23T15:43:34;2.55;;;1.17;;
23561;SDS011;11959;49.418;8.728;2024-03-23T15:46:00;1.85;;;0.90;;
23561;SDS011;11959;49.418;8.728;2024-03-23T15:48:29;4.38;;;1.02;;